sensor_id;sensor_type;location;lat;lon;timestamp;P1;durP1;ratioP1;P2;durP2;ratioP2
65045;SDS011;54657;52.022;5.534;2023-01-10T00:00:26;8.60;;;1.83;;
65045;SDS011;54657;52.022;5.534;2023-01-10T00:02:59;7.35;;;1.58;;
65045;SDS011;54657;52.022;5.534;2023-01-10T00:05:25;11.10;;;1.70;;
65045;SDS011;54657;52.022;5.534;2023-01-10T00:07:51;11.85;;;2.35;;
65045;SDS011;54657;52.022;5.534;2023-01-10T00:10:16;8.45;;;1.75;;
65045;SDS011;54657;52.022;5.534;2023-01-10T00:12:42;8.10;;;2.20;;
65045;SDS011;54657;52.022;5.534;2023-01-10T00:15:26;8.38;;;1.77;;
65045;SDS011;54657;52.022;5.534;2023-01-10T00:17:51;5.68;;;1.92;;
65045;SDS011;54657;52.022;5.534;2023-01-10T00:20:17;8.63;;;1.60;;
65045;SDS011;54657;52.022;5.534;2023-01-10T00:22:43;5.35;;;2.00;;
65045;SDS011;54657;52.022;5.534;2023-01-10T00:25:09;6.05;;;1.60;;
65045;SDS011;54657;52.022;5.534;2023-01-10T00:27:35;7.43;;;1.88;;
65045;SDS011;54657;52.022;5.534;2023-01-10T00:30:01;10.15;;;2.10;;
65045;SDS011;54657;52.022;5.534;2023-01-10T00:32:37;9.45;;;1.45;;
65045;SDS011;54657;52.022;5.534;2023-01-10T00:35:04;10.68;;;2.33;;
65045;SDS011;54657;52.022;5.534;2023-01-10T00:37:30;8.90;;;1.98;;
65045;SDS011;54657;52.022;5.534;2023-01-10T00:39:56;6.07;;;1.70;;
65045;SDS011;54657;52.022;5.534;2023-01-10T00:42:22;8.52;;;2.00;;
65045;SDS011;54657;52.022;5.534;2023-01-10T00:45:06;13.10;;;1.73;;
65045;SDS011;54657;52.022;5.534;2023-01-10T00:47:32;5.85;;;1.70;;
65045;SDS011;54657;52.022;5.534;2023-01-10T00:49:58;8.10;;;2.20;;
65045;SDS011;54657;52.022;5.534;2023-01-10T00:52:23;7.43;;;1.80;;
65045;SDS011;54657;52.022;5.534;2023-01-10T00:54:49;7.18;;;1.83;;
65045;SDS011;54657;52.022;5.534;2023-01-10T00:57:14;9.90;;;2.40;;
65045;SDS011;54657;52.022;5.534;2023-01-10T00:59:40;8.98;;;1.80;;
65045;SDS011;54657;52.022;5.534;2023-01-10T01:02:06;9.10;;;1.83;;
65045;SDS011;54657;52.022;5.534;2023-01-10T01:04:31;9.80;;;1.75;;
65045;SDS011;54657;52.022;5.534;2023-01-10T01:06:59;7.93;;;1.40;;
65045;SDS011;54657;52.022;5.534;2023-01-10T01:09:26;9.43;;;1.52;;
65045;SDS011;54657;52.022;5.534;2023-01-10T01:11:52;8.43;;;1.48;;
65045;SDS011;54657;52.022;5.534;2023-01-10T01:14:17;5.38;;;1.48;;
65045;SDS011;54657;52.022;5.534;2023-01-10T01:16:43;10.80;;;2.17;;
65045;SDS011;54657;52.022;5.534;2023-01-10T01:19:09;8.82;;;1.88;;
65045;SDS011;54657;52.022;5.534;2023-01-10T01:21:35;7.88;;;1.73;;
65045;SDS011;54657;52.022;5.534;2023-01-10T01:24:00;4.72;;;1.23;;
65045;SDS011;54657;52.022;5.534;2023-01-10T01:26:26;7.38;;;1.50;;
65045;SDS011;54657;52.022;5.534;2023-01-10T01:28:51;10.65;;;1.50;;
65045;SDS011;54657;52.022;5.534;2023-01-10T01:31:17;9.40;;;1.42;;
65045;SDS011;54657;52.022;5.534;2023-01-10T01:33:42;12.10;;;2.10;;
65045;SDS011;54657;52.022;5.534;2023-01-10T01:36:09;7.60;;;1.60;;
65045;SDS011;54657;52.022;5.534;2023-01-10T01:38:36;7.55;;;1.60;;
65045;SDS011;54657;52.022;5.534;2023-01-10T01:41:02;7.80;;;1.83;;
65045;SDS011;54657;52.022;5.534;2023-01-10T01:43:29;12.90;;;1.70;;
65045;SDS011;54657;52.022;5.534;2023-01-10T01:45:59;7.25;;;1.40;;
65045;SDS011;54657;52.022;5.534;2023-01-10T01:48:37;10.48;;;1.70;;
65045;SDS011;54657;52.022;5.534;2023-01-10T01:51:06;11.43;;;1.98;;
65045;SDS011;54657;52.022;5.534;2023-01-10T01:53:36;7.70;;;1.75;;
65045;SDS011;54657;52.022;5.534;2023-01-10T01:56:07;8.27;;;1.42;;
65045;SDS011;54657;52.022;5.534;2023-01-10T01:58:41;7.35;;;1.67;;
65045;SDS011;54657;52.022;5.534;2023-01-10T02:01:19;12.13;;;2.00;;
65045;SDS011;54657;52.022;5.534;2023-01-10T02:03:47;9.18;;;1.33;;
65045;SDS011;54657;52.022;5.534;2023-01-10T02:06:17;4.88;;;1.20;;
65045;SDS011;54657;52.022;5.534;2023-01-10T02:08:45;6.88;;;1.50;;
65045;SDS011;54657;52.022;5.534;2023-01-10T02:11:22;6.32;;;1.70;;
65045;SDS011;54657;52.022;5.534;2023-01-10T02:13:47;5.90;;;1.40;;
65045;SDS011;54657;52.022;5.534;2023-01-10T02:16:14;4.82;;;1.80;;
65045;SDS011;54657;52.022;5.534;2023-01-10T02:18:39;8.27;;;1.80;;
65045;SDS011;54657;52.022;5.534;2023-01-10T02:26:42;12.40;;;1.77;;
65045;SDS011;54657;52.022;5.534;2023-01-10T02:45:29;9.50;;;1.80;;
65045;SDS011;54657;52.022;5.534;2023-01-10T02:48:05;10.75;;;2.30;;
65045;SDS011;54657;52.022;5.534;2023-01-10T02:50:41;11.15;;;1.90;;
65045;SDS011;54657;52.022;5.534;2023-01-10T02:58:55;12.60;;;1.70;;
65045;SDS011;54657;52.022;5.534;2023-01-10T03:06:53;7.38;;;1.40;;
65045;SDS011;54657;52.022;5.534;2023-01-10T03:09:33;10.35;;;2.70;;
65045;SDS011;54657;52.022;5.534;2023-01-10T03:12:06;7.43;;;2.10;;
65045;SDS011;54657;52.022;5.534;2023-01-10T03:14:38;6.50;;;1.58;;
65045;SDS011;54657;52.022;5.534;2023-01-10T03:17:07;12.98;;;1.80;;
65045;SDS011;54657;52.022;5.534;2023-01-10T03:19:38;8.25;;;2.08;;
65045;SDS011;54657;52.022;5.534;2023-01-10T03:22:08;18.45;;;2.33;;
65045;SDS011;54657;52.022;5.534;2023-01-10T03:24:37;9.80;;;2.10;;
65045;SDS011;54657;52.022;5.534;2023-01-10T03:27:07;14.05;;;2.38;;
65045;SDS011;54657;52.022;5.534;2023-01-10T03:32:10;12.45;;;2.05;;
65045;SDS011;54657;52.022;5.534;2023-01-10T03:34:40;10.20;;;1.42;;
65045;SDS011;54657;52.022;5.534;2023-01-10T03:37:09;7.45;;;1.63;;
65045;SDS011;54657;52.022;5.534;2023-01-10T03:45:48;4.60;;;1.35;;
65045;SDS011;54657;52.022;5.534;2023-01-10T03:48:25;8.13;;;1.75;;
65045;SDS011;54657;52.022;5.534;2023-01-10T03:50:53;13.43;;;2.20;;
65045;SDS011;54657;52.022;5.534;2023-01-10T03:53:20;6.45;;;1.83;;
65045;SDS011;54657;52.022;5.534;2023-01-10T03:55:46;10.82;;;2.10;;
65045;SDS011;54657;52.022;5.534;2023-01-10T03:58:11;10.55;;;1.77;;
65045;SDS011;54657;52.022;5.534;2023-01-10T04:00:37;9.60;;;2.10;;
65045;SDS011;54657;52.022;5.534;2023-01-10T04:03:04;8.02;;;1.73;;
65045;SDS011;54657;52.022;5.534;2023-01-10T04:05:29;12.80;;;2.30;;
65045;SDS011;54657;52.022;5.534;2023-01-10T04:07:55;10.98;;;1.70;;
65045;SDS011;54657;52.022;5.534;2023-01-10T04:10:20;9.68;;;1.83;;
65045;SDS011;54657;52.022;5.534;2023-01-10T04:12:46;7.78;;;1.77;;
65045;SDS011;54657;52.022;5.534;2023-01-10T04:15:12;7.15;;;1.63;;
65045;SDS011;54657;52.022;5.534;2023-01-10T04:17:38;8.65;;;2.55;;
65045;SDS011;54657;52.022;5.534;2023-01-10T04:20:03;8.82;;;2.33;;
65045;SDS011;54657;52.022;5.534;2023-01-10T04:22:29;9.13;;;1.63;;
65045;SDS011;54657;52.022;5.534;2023-01-10T04:24:55;8.27;;;1.50;;
65045;SDS011;54657;52.022;5.534;2023-01-10T04:27:20;8.25;;;1.83;;
65045;SDS011;54657;52.022;5.534;2023-01-10T04:29:46;8.05;;;2.15;;
65045;SDS011;54657;52.022;5.534;2023-01-10T04:32:12;9.90;;;2.83;;
65045;SDS011;54657;52.022;5.534;2023-01-10T04:34:37;8.48;;;1.98;;
65045;SDS011;54657;52.022;5.534;2023-01-10T04:37:03;8.68;;;2.17;;
65045;SDS011;54657;52.022;5.534;2023-01-10T04:39:29;13.15;;;2.40;;
65045;SDS011;54657;52.022;5.534;2023-01-10T04:41:54;10.27;;;1.90;;
65045;SDS011;54657;52.022;5.534;2023-01-10T04:44:20;9.38;;;2.00;;
65045;SDS011;54657;52.022;5.534;2023-01-10T04:46:45;9.00;;;2.08;;
65045;SDS011;54657;52.022;5.534;2023-01-10T04:49:11;10.30;;;2.47;;
65045;SDS011;54657;52.022;5.534;2023-01-10T04:51:36;11.10;;;2.40;;
65045;SDS011;54657;52.022;5.534;2023-01-10T04:54:02;11.43;;;2.30;;
65045;SDS011;54657;52.022;5.534;2023-01-10T04:56:28;13.85;;;2.53;;
65045;SDS011;54657;52.022;5.534;2023-01-10T04:58:54;12.23;;;1.90;;
65045;SDS011;54657;52.022;5.534;2023-01-10T05:01:23;10.13;;;1.80;;
65045;SDS011;54657;52.022;5.534;2023-01-10T05:03:51;15.90;;;2.10;;
65045;SDS011;54657;52.022;5.534;2023-01-10T05:06:19;10.95;;;1.92;;
65045;SDS011;54657;52.022;5.534;2023-01-10T05:08:45;9.32;;;1.90;;
65045;SDS011;54657;52.022;5.534;2023-01-10T05:11:11;11.98;;;1.92;;
65045;SDS011;54657;52.022;5.534;2023-01-10T05:13:37;7.32;;;1.73;;
65045;SDS011;54657;52.022;5.534;2023-01-10T05:16:02;8.95;;;1.63;;
65045;SDS011;54657;52.022;5.534;2023-01-10T05:18:29;7.63;;;1.65;;
65045;SDS011;54657;52.022;5.534;2023-01-10T05:20:58;8.95;;;2.20;;
65045;SDS011;54657;52.022;5.534;2023-01-10T05:23:28;15.48;;;2.17;;
65045;SDS011;54657;52.022;5.534;2023-01-10T05:25:54;6.38;;;1.80;;
65045;SDS011;54657;52.022;5.534;2023-01-10T05:28:20;9.90;;;1.80;;
65045;SDS011;54657;52.022;5.534;2023-01-10T05:30:45;8.27;;;2.40;;
65045;SDS011;54657;52.022;5.534;2023-01-10T05:33:11;10.40;;;2.13;;
65045;SDS011;54657;52.022;5.534;2023-01-10T05:35:36;11.27;;;2.72;;
65045;SDS011;54657;52.022;5.534;2023-01-10T05:38:02;13.02;;;3.13;;
65045;SDS011;54657;52.022;5.534;2023-01-10T05:40:28;15.30;;;2.60;;
65045;SDS011;54657;52.022;5.534;2023-01-10T05:42:53;7.70;;;2.00;;
65045;SDS011;54657;52.022;5.534;2023-01-10T05:45:19;11.88;;;2.47;;
65045;SDS011;54657;52.022;5.534;2023-01-10T05:47:45;9.40;;;2.22;;
65045;SDS011;54657;52.022;5.534;2023-01-10T05:50:10;10.60;;;2.40;;
65045;SDS011;54657;52.022;5.534;2023-01-10T05:52:36;10.30;;;2.67;;
65045;SDS011;54657;52.022;5.534;2023-01-10T05:55:02;8.45;;;1.83;;
65045;SDS011;54657;52.022;5.534;2023-01-10T05:57:28;9.27;;;2.70;;
65045;SDS011;54657;52.022;5.534;2023-01-10T05:59:53;13.25;;;2.22;;
65045;SDS011;54657;52.022;5.534;2023-01-10T06:02:19;11.80;;;3.00;;
65045;SDS011;54657;52.022;5.534;2023-01-10T06:04:44;15.13;;;2.35;;
65045;SDS011;54657;52.022;5.534;2023-01-10T06:07:10;10.65;;;2.42;;
65045;SDS011;54657;52.022;5.534;2023-01-10T06:09:35;11.13;;;3.03;;
65045;SDS011;54657;52.022;5.534;2023-01-10T06:12:01;11.55;;;2.10;;
65045;SDS011;54657;52.022;5.534;2023-01-10T06:14:26;20.70;;;3.72;;
65045;SDS011;54657;52.022;5.534;2023-01-10T06:16:52;14.18;;;2.85;;
65045;SDS011;54657;52.022;5.534;2023-01-10T06:19:17;12.70;;;2.58;;
65045;SDS011;54657;52.022;5.534;2023-01-10T06:21:43;14.15;;;2.80;;
65045;SDS011;54657;52.022;5.534;2023-01-10T06:24:09;10.70;;;2.53;;
65045;SDS011;54657;52.022;5.534;2023-01-10T06:26:34;13.50;;;2.72;;
65045;SDS011;54657;52.022;5.534;2023-01-10T06:29:00;12.32;;;2.78;;
65045;SDS011;54657;52.022;5.534;2023-01-10T06:31:26;10.98;;;2.47;;
65045;SDS011;54657;52.022;5.534;2023-01-10T06:33:52;21.45;;;3.35;;
65045;SDS011;54657;52.022;5.534;2023-01-10T06:36:17;10.18;;;2.97;;
65045;SDS011;54657;52.022;5.534;2023-01-10T06:38:43;13.65;;;2.88;;
65045;SDS011;54657;52.022;5.534;2023-01-10T06:41:09;10.30;;;2.50;;
65045;SDS011;54657;52.022;5.534;2023-01-10T06:43:38;13.98;;;2.70;;
65045;SDS011;54657;52.022;5.534;2023-01-10T06:46:09;10.60;;;2.70;;
65045;SDS011;54657;52.022;5.534;2023-01-10T06:48:35;15.35;;;3.03;;
65045;SDS011;54657;52.022;5.534;2023-01-10T06:51:02;15.82;;;3.13;;
65045;SDS011;54657;52.022;5.534;2023-01-10T06:53:28;12.75;;;2.55;;
65045;SDS011;54657;52.022;5.534;2023-01-10T06:55:54;18.08;;;3.03;;
65045;SDS011;54657;52.022;5.534;2023-01-10T06:58:21;16.08;;;2.80;;
65045;SDS011;54657;52.022;5.534;2023-01-10T07:00:47;15.35;;;3.13;;
65045;SDS011;54657;52.022;5.534;2023-01-10T07:03:12;17.17;;;2.78;;
65045;SDS011;54657;52.022;5.534;2023-01-10T07:05:38;10.30;;;2.92;;
65045;SDS011;54657;52.022;5.534;2023-01-10T07:08:04;13.68;;;3.05;;
65045;SDS011;54657;52.022;5.534;2023-01-10T07:10:29;15.85;;;3.22;;
65045;SDS011;54657;52.022;5.534;2023-01-10T07:12:55;14.93;;;2.80;;
65045;SDS011;54657;52.022;5.534;2023-01-10T07:15:22;12.38;;;2.92;;
65045;SDS011;54657;52.022;5.534;2023-01-10T07:17:48;12.30;;;2.90;;
65045;SDS011;54657;52.022;5.534;2023-01-10T07:20:13;15.30;;;3.08;;
65045;SDS011;54657;52.022;5.534;2023-01-10T07:22:39;13.52;;;2.95;;
65045;SDS011;54657;52.022;5.534;2023-01-10T07:25:04;13.77;;;3.15;;
65045;SDS011;54657;52.022;5.534;2023-01-10T07:27:30;17.25;;;3.00;;
65045;SDS011;54657;52.022;5.534;2023-01-10T07:29:57;15.13;;;2.97;;
65045;SDS011;54657;52.022;5.534;2023-01-10T07:32:23;15.27;;;2.95;;
65045;SDS011;54657;52.022;5.534;2023-01-10T07:34:49;22.83;;;3.42;;
65045;SDS011;54657;52.022;5.534;2023-01-10T07:37:14;13.73;;;3.33;;
65045;SDS011;54657;52.022;5.534;2023-01-10T07:39:40;13.60;;;3.53;;
65045;SDS011;54657;52.022;5.534;2023-01-10T07:42:06;19.52;;;3.50;;
65045;SDS011;54657;52.022;5.534;2023-01-10T07:44:35;15.93;;;3.10;;
65045;SDS011;54657;52.022;5.534;2023-01-10T07:47:00;14.85;;;2.85;;
65045;SDS011;54657;52.022;5.534;2023-01-10T07:49:26;20.10;;;3.00;;
65045;SDS011;54657;52.022;5.534;2023-01-10T07:51:51;17.10;;;3.13;;
65045;SDS011;54657;52.022;5.534;2023-01-10T07:54:17;15.82;;;2.92;;
65045;SDS011;54657;52.022;5.534;2023-01-10T07:56:43;16.98;;;2.92;;
65045;SDS011;54657;52.022;5.534;2023-01-10T07:59:11;12.38;;;2.63;;
65045;SDS011;54657;52.022;5.534;2023-01-10T08:01:37;11.13;;;3.03;;
65045;SDS011;54657;52.022;5.534;2023-01-10T08:04:02;15.35;;;3.33;;
65045;SDS011;54657;52.022;5.534;2023-01-10T08:06:29;19.95;;;2.63;;
65045;SDS011;54657;52.022;5.534;2023-01-10T08:08:55;11.43;;;2.97;;
65045;SDS011;54657;52.022;5.534;2023-01-10T08:11:20;16.02;;;3.25;;
65045;SDS011;54657;52.022;5.534;2023-01-10T08:13:46;14.50;;;3.10;;
65045;SDS011;54657;52.022;5.534;2023-01-10T08:16:12;13.30;;;2.97;;
65045;SDS011;54657;52.022;5.534;2023-01-10T08:18:39;12.50;;;2.88;;
65045;SDS011;54657;52.022;5.534;2023-01-10T08:21:06;13.25;;;2.45;;
65045;SDS011;54657;52.022;5.534;2023-01-10T08:23:33;15.07;;;3.40;;
65045;SDS011;54657;52.022;5.534;2023-01-10T08:25:59;17.88;;;2.92;;
65045;SDS011;54657;52.022;5.534;2023-01-10T08:28:25;12.88;;;2.85;;
65045;SDS011;54657;52.022;5.534;2023-01-10T08:30:51;11.50;;;3.15;;
65045;SDS011;54657;52.022;5.534;2023-01-10T08:33:19;13.18;;;2.72;;
65045;SDS011;54657;52.022;5.534;2023-01-10T08:35:46;19.33;;;2.97;;
65045;SDS011;54657;52.022;5.534;2023-01-10T08:38:12;15.75;;;2.45;;
65045;SDS011;54657;52.022;5.534;2023-01-10T08:40:37;17.88;;;2.65;;
65045;SDS011;54657;52.022;5.534;2023-01-10T08:43:04;17.85;;;3.10;;
65045;SDS011;54657;52.022;5.534;2023-01-10T08:45:32;17.73;;;3.10;;
65045;SDS011;54657;52.022;5.534;2023-01-10T08:47:59;14.43;;;3.47;;
65045;SDS011;54657;52.022;5.534;2023-01-10T08:50:24;10.40;;;3.78;;
65045;SDS011;54657;52.022;5.534;2023-01-10T08:52:50;15.07;;;3.13;;
65045;SDS011;54657;52.022;5.534;2023-01-10T08:55:16;14.38;;;3.50;;
65045;SDS011;54657;52.022;5.534;2023-01-10T08:57:43;16.05;;;2.72;;
65045;SDS011;54657;52.022;5.534;2023-01-10T09:00:09;12.25;;;2.70;;
65045;SDS011;54657;52.022;5.534;2023-01-10T09:02:36;11.75;;;2.83;;
65045;SDS011;54657;52.022;5.534;2023-01-10T09:05:03;19.80;;;3.50;;
65045;SDS011;54657;52.022;5.534;2023-01-10T09:07:29;12.85;;;2.45;;
65045;SDS011;54657;52.022;5.534;2023-01-10T09:09:54;18.63;;;3.85;;
65045;SDS011;54657;52.022;5.534;2023-01-10T09:12:20;12.13;;;3.17;;
65045;SDS011;54657;52.022;5.534;2023-01-10T09:15:04;21.55;;;3.33;;
65045;SDS011;54657;52.022;5.534;2023-01-10T09:17:30;12.73;;;2.80;;
65045;SDS011;54657;52.022;5.534;2023-01-10T09:19:56;14.18;;;2.83;;
65045;SDS011;54657;52.022;5.534;2023-01-10T09:22:21;17.75;;;4.15;;
65045;SDS011;54657;52.022;5.534;2023-01-10T09:24:47;15.05;;;2.70;;
65045;SDS011;54657;52.022;5.534;2023-01-10T09:27:13;13.65;;;3.03;;
65045;SDS011;54657;52.022;5.534;2023-01-10T09:29:39;14.02;;;2.60;;
65045;SDS011;54657;52.022;5.534;2023-01-10T09:32:04;14.85;;;2.88;;
65045;SDS011;54657;52.022;5.534;2023-01-10T09:34:30;17.45;;;3.63;;
65045;SDS011;54657;52.022;5.534;2023-01-10T09:36:55;23.83;;;3.50;;
65045;SDS011;54657;52.022;5.534;2023-01-10T09:39:21;18.45;;;3.13;;
65045;SDS011;54657;52.022;5.534;2023-01-10T09:47:37;13.18;;;2.97;;
65045;SDS011;54657;52.022;5.534;2023-01-10T09:50:09;15.68;;;3.38;;
65045;SDS011;54657;52.022;5.534;2023-01-10T09:52:43;19.60;;;3.45;;
65045;SDS011;54657;52.022;5.534;2023-01-10T09:55:34;13.63;;;3.35;;
65045;SDS011;54657;52.022;5.534;2023-01-10T09:58:03;16.25;;;3.20;;
65045;SDS011;54657;52.022;5.534;2023-01-10T10:01:11;11.57;;;2.60;;
65045;SDS011;54657;52.022;5.534;2023-01-10T10:06:28;13.15;;;2.42;;
65045;SDS011;54657;52.022;5.534;2023-01-10T10:08:54;14.40;;;3.10;;
65045;SDS011;54657;52.022;5.534;2023-01-10T10:21:53;13.20;;;3.10;;
65045;SDS011;54657;52.022;5.534;2023-01-10T10:32:21;18.92;;;3.50;;
65045;SDS011;54657;52.022;5.534;2023-01-10T10:37:39;16.30;;;3.08;;
65045;SDS011;54657;52.022;5.534;2023-01-10T10:42:38;13.95;;;2.58;;
65045;SDS011;54657;52.022;5.534;2023-01-10T10:45:14;20.38;;;2.92;;
65045;SDS011;54657;52.022;5.534;2023-01-10T10:47:42;11.10;;;2.67;;
65045;SDS011;54657;52.022;5.534;2023-01-10T10:52:44;13.65;;;3.20;;
65045;SDS011;54657;52.022;5.534;2023-01-10T10:55:14;12.25;;;2.78;;
65045;SDS011;54657;52.022;5.534;2023-01-10T10:57:41;11.75;;;3.03;;
65045;SDS011;54657;52.022;5.534;2023-01-10T11:00:13;12.52;;;3.08;;
65045;SDS011;54657;52.022;5.534;2023-01-10T11:03:04;13.07;;;2.28;;
65045;SDS011;54657;52.022;5.534;2023-01-10T11:05:44;14.30;;;3.05;;
65045;SDS011;54657;52.022;5.534;2023-01-10T11:08:12;11.82;;;2.63;;
65045;SDS011;54657;52.022;5.534;2023-01-10T11:10:47;16.05;;;3.05;;
65045;SDS011;54657;52.022;5.534;2023-01-10T11:16:04;16.80;;;2.33;;
65045;SDS011;54657;52.022;5.534;2023-01-10T11:18:31;9.27;;;2.40;;
65045;SDS011;54657;52.022;5.534;2023-01-10T11:21:05;13.63;;;3.00;;
65045;SDS011;54657;52.022;5.534;2023-01-10T11:23:49;15.63;;;2.67;;
65045;SDS011;54657;52.022;5.534;2023-01-10T11:26:29;10.30;;;2.22;;
65045;SDS011;54657;52.022;5.534;2023-01-10T11:29:18;12.43;;;2.55;;
65045;SDS011;54657;52.022;5.534;2023-01-10T11:31:45;12.73;;;1.92;;
65045;SDS011;54657;52.022;5.534;2023-01-10T11:34:23;12.57;;;2.45;;
65045;SDS011;54657;52.022;5.534;2023-01-10T11:37:03;9.65;;;2.15;;
65045;SDS011;54657;52.022;5.534;2023-01-10T11:39:41;13.23;;;2.50;;
65045;SDS011;54657;52.022;5.534;2023-01-10T11:42:17;13.35;;;2.70;;
65045;SDS011;54657;52.022;5.534;2023-01-10T11:44:54;11.48;;;2.60;;
65045;SDS011;54657;52.022;5.534;2023-01-10T11:47:38;8.93;;;2.30;;
65045;SDS011;54657;52.022;5.534;2023-01-10T11:50:07;15.73;;;2.20;;
65045;SDS011;54657;52.022;5.534;2023-01-10T11:52:34;12.07;;;2.10;;
65045;SDS011;54657;52.022;5.534;2023-01-10T11:55:00;14.18;;;2.47;;
65045;SDS011;54657;52.022;5.534;2023-01-10T11:57:31;10.23;;;2.50;;
65045;SDS011;54657;52.022;5.534;2023-01-10T12:02:32;9.45;;;2.00;;
65045;SDS011;54657;52.022;5.534;2023-01-10T12:05:00;16.45;;;2.67;;
65045;SDS011;54657;52.022;5.534;2023-01-10T12:07:30;14.38;;;2.22;;
65045;SDS011;54657;52.022;5.534;2023-01-10T12:10:18;15.02;;;2.30;;
65045;SDS011;54657;52.022;5.534;2023-01-10T12:12:51;13.98;;;3.63;;
65045;SDS011;54657;52.022;5.534;2023-01-10T12:15:29;10.20;;;2.25;;
65045;SDS011;54657;52.022;5.534;2023-01-10T12:17:56;15.73;;;2.97;;
65045;SDS011;54657;52.022;5.534;2023-01-10T12:20:30;12.82;;;2.30;;
65045;SDS011;54657;52.022;5.534;2023-01-10T12:23:02;11.13;;;2.95;;
65045;SDS011;54657;52.022;5.534;2023-01-10T12:27:59;10.45;;;2.67;;
65045;SDS011;54657;52.022;5.534;2023-01-10T12:33:05;11.88;;;2.50;;
65045;SDS011;54657;52.022;5.534;2023-01-10T12:38:06;10.07;;;2.10;;
65045;SDS011;54657;52.022;5.534;2023-01-10T12:41:06;13.25;;;2.63;;
65045;SDS011;54657;52.022;5.534;2023-01-10T12:43:37;15.05;;;2.65;;
65045;SDS011;54657;52.022;5.534;2023-01-10T12:46:32;12.32;;;2.33;;
65045;SDS011;54657;52.022;5.534;2023-01-10T12:49:08;10.70;;;2.83;;
65045;SDS011;54657;52.022;5.534;2023-01-10T12:51:42;8.82;;;2.40;;
65045;SDS011;54657;52.022;5.534;2023-01-10T12:54:14;12.25;;;2.33;;
65045;SDS011;54657;52.022;5.534;2023-01-10T12:56:42;9.90;;;2.17;;
65045;SDS011;54657;52.022;5.534;2023-01-10T12:59:13;16.23;;;3.78;;
65045;SDS011;54657;52.022;5.534;2023-01-10T13:01:44;13.68;;;3.20;;
65045;SDS011;54657;52.022;5.534;2023-01-10T13:04:17;12.30;;;3.20;;
65045;SDS011;54657;52.022;5.534;2023-01-10T13:06:46;19.13;;;3.15;;
65045;SDS011;54657;52.022;5.534;2023-01-10T13:11:49;13.20;;;2.50;;
65045;SDS011;54657;52.022;5.534;2023-01-10T13:14:30;10.27;;;2.60;;
65045;SDS011;54657;52.022;5.534;2023-01-10T13:17:19;12.50;;;2.70;;
65045;SDS011;54657;52.022;5.534;2023-01-10T13:22:55;11.52;;;2.90;;
65045;SDS011;54657;52.022;5.534;2023-01-10T13:25:30;12.40;;;2.35;;
65045;SDS011;54657;52.022;5.534;2023-01-10T13:28:04;10.63;;;2.20;;
65045;SDS011;54657;52.022;5.534;2023-01-10T13:30:42;15.52;;;2.20;;
65045;SDS011;54657;52.022;5.534;2023-01-10T13:35:47;11.77;;;2.45;;
65045;SDS011;54657;52.022;5.534;2023-01-10T13:38:18;7.63;;;1.73;;
65045;SDS011;54657;52.022;5.534;2023-01-10T13:41:02;16.38;;;2.38;;
65045;SDS011;54657;52.022;5.534;2023-01-10T13:46:33;15.98;;;3.65;;
65045;SDS011;54657;52.022;5.534;2023-01-10T13:51:21;11.55;;;2.33;;
65045;SDS011;54657;52.022;5.534;2023-01-10T13:53:52;9.30;;;2.40;;
65045;SDS011;54657;52.022;5.534;2023-01-10T13:58:58;10.90;;;2.58;;
65045;SDS011;54657;52.022;5.534;2023-01-10T14:01:48;10.25;;;2.53;;
65045;SDS011;54657;52.022;5.534;2023-01-10T14:04:36;9.20;;;2.05;;
65045;SDS011;54657;52.022;5.534;2023-01-10T14:10:07;12.10;;;2.45;;
65045;SDS011;54657;52.022;5.534;2023-01-10T14:12:39;17.23;;;2.35;;
65045;SDS011;54657;52.022;5.534;2023-01-10T14:15:37;10.00;;;1.80;;
65045;SDS011;54657;52.022;5.534;2023-01-10T14:18:20;10.80;;;2.53;;
65045;SDS011;54657;52.022;5.534;2023-01-10T14:20:56;10.70;;;2.63;;
65045;SDS011;54657;52.022;5.534;2023-01-10T14:23:33;16.52;;;2.67;;
65045;SDS011;54657;52.022;5.534;2023-01-10T14:25:59;12.73;;;2.15;;
65045;SDS011;54657;52.022;5.534;2023-01-10T14:28:29;10.43;;;2.50;;
65045;SDS011;54657;52.022;5.534;2023-01-10T14:30:59;10.53;;;2.17;;
65045;SDS011;54657;52.022;5.534;2023-01-10T14:33:31;12.90;;;2.55;;
65045;SDS011;54657;52.022;5.534;2023-01-10T14:35:59;15.50;;;3.00;;
65045;SDS011;54657;52.022;5.534;2023-01-10T14:38:29;12.15;;;2.83;;
65045;SDS011;54657;52.022;5.534;2023-01-10T14:41:05;10.68;;;2.20;;
65045;SDS011;54657;52.022;5.534;2023-01-10T14:44:20;12.57;;;2.35;;
65045;SDS011;54657;52.022;5.534;2023-01-10T14:46:32;12.95;;;2.67;;
65045;SDS011;54657;52.022;5.534;2023-01-10T14:49:20;11.65;;;2.70;;
65045;SDS011;54657;52.022;5.534;2023-01-10T14:51:46;15.95;;;3.10;;
65045;SDS011;54657;52.022;5.534;2023-01-10T14:54:14;12.10;;;2.10;;
65045;SDS011;54657;52.022;5.534;2023-01-10T14:56:49;9.50;;;2.20;;
65045;SDS011;54657;52.022;5.534;2023-01-10T15:01:46;13.55;;;2.15;;
65045;SDS011;54657;52.022;5.534;2023-01-10T15:04:17;8.75;;;2.25;;
65045;SDS011;54657;52.022;5.534;2023-01-10T15:06:54;11.50;;;2.50;;
65045;SDS011;54657;52.022;5.534;2023-01-10T15:09:26;10.60;;;2.42;;
65045;SDS011;54657;52.022;5.534;2023-01-10T15:11:53;14.02;;;2.50;;
65045;SDS011;54657;52.022;5.534;2023-01-10T15:14:21;5.55;;;1.42;;
65045;SDS011;54657;52.022;5.534;2023-01-10T15:16:50;8.90;;;2.35;;
65045;SDS011;54657;52.022;5.534;2023-01-10T15:19:18;11.63;;;2.45;;
65045;SDS011;54657;52.022;5.534;2023-01-10T15:21:45;9.77;;;1.95;;
65045;SDS011;54657;52.022;5.534;2023-01-10T15:24:33;11.75;;;3.17;;
65045;SDS011;54657;52.022;5.534;2023-01-10T15:27:02;8.88;;;2.13;;
65045;SDS011;54657;52.022;5.534;2023-01-10T15:29:30;4.70;;;1.90;;
65045;SDS011;54657;52.022;5.534;2023-01-10T15:32:02;11.52;;;2.42;;
65045;SDS011;54657;52.022;5.534;2023-01-10T15:34:51;8.32;;;2.08;;
65045;SDS011;54657;52.022;5.534;2023-01-10T15:37:23;9.98;;;2.00;;
65045;SDS011;54657;52.022;5.534;2023-01-10T15:39:54;10.25;;;2.28;;
65045;SDS011;54657;52.022;5.534;2023-01-10T15:42:20;6.90;;;1.85;;
65045;SDS011;54657;52.022;5.534;2023-01-10T15:44:47;9.63;;;1.92;;
65045;SDS011;54657;52.022;5.534;2023-01-10T15:50:19;14.60;;;2.05;;
65045;SDS011;54657;52.022;5.534;2023-01-10T15:58:16;11.70;;;2.38;;
65045;SDS011;54657;52.022;5.534;2023-01-10T16:00:47;6.38;;;2.10;;
65045;SDS011;54657;52.022;5.534;2023-01-10T16:03:20;11.82;;;2.10;;
65045;SDS011;54657;52.022;5.534;2023-01-10T16:05:49;8.77;;;1.75;;
65045;SDS011;54657;52.022;5.534;2023-01-10T16:08:21;6.20;;;1.80;;
65045;SDS011;54657;52.022;5.534;2023-01-10T16:10:56;6.95;;;1.75;;
65045;SDS011;54657;52.022;5.534;2023-01-10T16:13:23;6.05;;;1.60;;
65045;SDS011;54657;52.022;5.534;2023-01-10T16:15:55;4.13;;;1.42;;
65045;SDS011;54657;52.022;5.534;2023-01-10T16:18:25;5.18;;;1.58;;
65045;SDS011;54657;52.022;5.534;2023-01-10T16:20:52;4.65;;;1.40;;
65045;SDS011;54657;52.022;5.534;2023-01-10T16:23:29;7.22;;;1.80;;
65045;SDS011;54657;52.022;5.534;2023-01-10T16:25:59;5.68;;;1.63;;
65045;SDS011;54657;52.022;5.534;2023-01-10T16:28:28;5.50;;;1.70;;
65045;SDS011;54657;52.022;5.534;2023-01-10T16:30:59;7.05;;;1.67;;
65045;SDS011;54657;52.022;5.534;2023-01-10T16:33:25;4.55;;;1.50;;
65045;SDS011;54657;52.022;5.534;2023-01-10T16:35:55;6.30;;;1.80;;
65045;SDS011;54657;52.022;5.534;2023-01-10T16:38:23;2.45;;;1.50;;
65045;SDS011;54657;52.022;5.534;2023-01-10T16:40:50;6.82;;;1.77;;
65045;SDS011;54657;52.022;5.534;2023-01-10T16:43:19;6.57;;;1.77;;
65045;SDS011;54657;52.022;5.534;2023-01-10T16:45:56;4.57;;;1.50;;
65045;SDS011;54657;52.022;5.534;2023-01-10T16:48:26;8.43;;;4.00;;
65045;SDS011;54657;52.022;5.534;2023-01-10T16:50:53;5.45;;;1.52;;